sensor_id;sensor_type;location;lat;lon;timestamp;temperature;humidity
18291;DHT22;9271;48.590;8.866;2023-02-18T00:01:21;13.00;99.90
18291;DHT22;9271;48.590;8.866;2023-02-18T00:03:48;13.00;99.90
18291;DHT22;9271;48.590;8.866;2023-02-18T00:06:17;12.80;99.90
18291;DHT22;9271;48.590;8.866;2023-02-18T00:08:44;13.20;99.80
18291;DHT22;9271;48.590;8.866;2023-02-18T00:11:13;13.50;99.10
18291;DHT22;9271;48.590;8.866;2023-02-18T00:13:40;13.70;98.70
18291;DHT22;9271;48.590;8.866;2023-02-18T00:16:08;13.50;99.00
18291;DHT22;9271;48.590;8.866;2023-02-18T00:18:35;13.20;99.10
18291;DHT22;9271;48.590;8.866;2023-02-18T00:21:03;12.80;99.90
18291;DHT22;9271;48.590;8.866;2023-02-18T00:23:31;12.80;99.90
18291;DHT22;9271;48.590;8.866;2023-02-18T00:25:59;12.80;99.90
18291;DHT22;9271;48.590;8.866;2023-02-18T00:28:28;12.90;99.90
18291;DHT22;9271;48.590;8.866;2023-02-18T00:30:54;12.90;99.90
18291;DHT22;9271;48.590;8.866;2023-02-18T00:33:21;12.80;99.90
18291;DHT22;9271;48.590;8.866;2023-02-18T00:35:48;12.70;99.90
18291;DHT22;9271;48.590;8.866;2023-02-18T00:38:14;12.80;99.90
18291;DHT22;9271;48.590;8.866;2023-02-18T00:40:41;12.90;99.90
18291;DHT22;9271;48.590;8.866;2023-02-18T00:43:09;12.90;99.90
18291;DHT22;9271;48.590;8.866;2023-02-18T00:45:37;13.10;99.60
18291;DHT22;9271;48.590;8.866;2023-02-18T00:48:03;12.90;99.70
18291;DHT22;9271;48.590;8.866;2023-02-18T00:50:30;12.90;99.90
18291;DHT22;9271;48.590;8.866;2023-02-18T00:52:57;12.90;99.80
18291;DHT22;9271;48.590;8.866;2023-02-18T00:55:23;12.80;99.80
18291;DHT22;9271;48.590;8.866;2023-02-18T00:57:51;12.80;99.80
18291;DHT22;9271;48.590;8.866;2023-02-18T01:00:18;12.90;99.90
18291;DHT22;9271;48.590;8.866;2023-02-18T01:02:46;12.90;99.80
18291;DHT22;9271;48.590;8.866;2023-02-18T01:05:13;12.80;99.90
18291;DHT22;9271;48.590;8.866;2023-02-18T01:07:39;12.70;99.90
18291;DHT22;9271;48.590;8.866;2023-02-18T01:10:07;12.60;99.90
18291;DHT22;9271;48.590;8.866;2023-02-18T01:12:33;12.60;99.90
18291;DHT22;9271;48.590;8.866;2023-02-18T01:15:00;12.50;99.90
18291;DHT22;9271;48.590;8.866;2023-02-18T01:17:27;12.70;99.90
18291;DHT22;9271;48.590;8.866;2023-02-18T01:19:55;12.70;99.90
18291;DHT22;9271;48.590;8.866;2023-02-18T01:22:21;12.80;99.50
18291;DHT22;9271;48.590;8.866;2023-02-18T01:24:48;12.60;99.90
18291;DHT22;9271;48.590;8.866;2023-02-18T01:27:15;12.50;99.90
18291;DHT22;9271;48.590;8.866;2023-02-18T01:29:41;12.40;99.90
18291;DHT22;9271;48.590;8.866;2023-02-18T01:32:08;12.50;99.90
18291;DHT22;9271;48.590;8.866;2023-02-18T01:34:35;12.50;99.90
18291;DHT22;9271;48.590;8.866;2023-02-18T01:37:03;12.60;99.80
18291;DHT22;9271;48.590;8.866;2023-02-18T01:39:29;12.40;99.70
18291;DHT22;9271;48.590;8.866;2023-02-18T01:41:56;12.30;99.70
18291;DHT22;9271;48.590;8.866;2023-02-18T01:44:26;12.20;99.90
18291;DHT22;9271;48.590;8.866;2023-02-18T01:46:53;12.00;99.90
18291;DHT22;9271;48.590;8.866;2023-02-18T01:49:24;12.20;99.90
18291;DHT22;9271;48.590;8.866;2023-02-18T01:51:54;12.10;99.80
18291;DHT22;9271;48.590;8.866;2023-02-18T01:54:27;11.90;99.90
18291;DHT22;9271;48.590;8.866;2023-02-18T01:56:58;12.10;99.80
18291;DHT22;9271;48.590;8.866;2023-02-18T01:59:28;12.50;99.20
18291;DHT22;9271;48.590;8.866;2023-02-18T02:01:57;12.70;98.70
18291;DHT22;9271;48.590;8.866;2023-02-18T02:04:24;12.60;99.10
18291;DHT22;9271;48.590;8.866;2023-02-18T02:06:51;12.60;99.20
18291;DHT22;9271;48.590;8.866;2023-02-18T02:09:19;12.70;99.00
18291;DHT22;9271;48.590;8.866;2023-02-18T02:15:25;12.70;99.20
18291;DHT22;9271;48.590;8.866;2023-02-18T02:18:12;12.90;99.00
18291;DHT22;9271;48.590;8.866;2023-02-18T02:27:07;12.80;99.30
18291;DHT22;9271;48.590;8.866;2023-02-18T02:33:02;12.80;99.70
18291;DHT22;9271;48.590;8.866;2023-02-18T02:35:36;12.60;99.90
18291;DHT22;9271;48.590;8.866;2023-02-18T02:38:07;12.30;99.90
18291;DHT22;9271;48.590;8.866;2023-02-18T02:40:39;12.40;99.90
18291;DHT22;9271;48.590;8.866;2023-02-18T02:43:14;12.50;99.90
18291;DHT22;9271;48.590;8.866;2023-02-18T02:45:53;12.70;99.90
18291;DHT22;9271;48.590;8.866;2023-02-18T02:48:31;12.70;99.90
18291;DHT22;9271;48.590;8.866;2023-02-18T02:51:05;12.60;99.90
18291;DHT22;9271;48.590;8.866;2023-02-18T02:53:34;12.70;99.90
18291;DHT22;9271;48.590;8.866;2023-02-18T02:56:02;12.70;99.90
18291;DHT22;9271;48.590;8.866;2023-02-18T02:58:29;12.70;99.90
18291;DHT22;9271;48.590;8.866;2023-02-18T03:01:18;12.70;99.90
18291;DHT22;9271;48.590;8.866;2023-02-18T03:07:23;12.50;99.90
18291;DHT22;9271;48.590;8.866;2023-02-18T03:10:09;12.50;99.90
18291;DHT22;9271;48.590;8.866;2023-02-18T03:12:45;12.30;99.90
18291;DHT22;9271;48.590;8.866;2023-02-18T03:15:21;12.20;99.90
18291;DHT22;9271;48.590;8.866;2023-02-18T03:17:56;12.00;99.90
18291;DHT22;9271;48.590;8.866;2023-02-18T03:20:26;12.00;99.90
18291;DHT22;9271;48.590;8.866;2023-02-18T03:22:57;12.10;99.90
18291;DHT22;9271;48.590;8.866;2023-02-18T03:25:25;12.00;99.90
18291;DHT22;9271;48.590;8.866;2023-02-18T03:27:54;12.00;99.90
18291;DHT22;9271;48.590;8.866;2023-02-18T03:30:24;11.90;99.90
18291;DHT22;9271;48.590;8.866;2023-02-18T03:32:58;11.80;99.90
18291;DHT22;9271;48.590;8.866;2023-02-18T03:35:26;11.80;99.90
18291;DHT22;9271;48.590;8.866;2023-02-18T03:37:58;11.70;99.90
18291;DHT22;9271;48.590;8.866;2023-02-18T03:40:27;11.60;99.90
18291;DHT22;9271;48.590;8.866;2023-02-18T03:42:56;11.40;99.90
18291;DHT22;9271;48.590;8.866;2023-02-18T03:45:23;11.40;99.90
18291;DHT22;9271;48.590;8.866;2023-02-18T03:47:49;11.30;99.90
18291;DHT22;9271;48.590;8.866;2023-02-18T03:50:16;11.30;99.90
18291;DHT22;9271;48.590;8.866;2023-02-18T03:52:43;11.30;99.90
18291;DHT22;9271;48.590;8.866;2023-02-18T03:55:11;11.20;99.90
18291;DHT22;9271;48.590;8.866;2023-02-18T03:57:38;11.20;99.90
18291;DHT22;9271;48.590;8.866;2023-02-18T04:00:07;11.10;99.90
18291;DHT22;9271;48.590;8.866;2023-02-18T04:02:35;11.30;99.90
18291;DHT22;9271;48.590;8.866;2023-02-18T04:05:01;11.30;99.90
18291;DHT22;9271;48.590;8.866;2023-02-18T04:07:28;11.20;99.90
18291;DHT22;9271;48.590;8.866;2023-02-18T04:09:55;11.20;99.90
18291;DHT22;9271;48.590;8.866;2023-02-18T04:12:22;11.20;99.90
18291;DHT22;9271;48.590;8.866;2023-02-18T04:14:49;11.20;99.90
18291;DHT22;9271;48.590;8.866;2023-02-18T04:17:16;11.00;99.90
18291;DHT22;9271;48.590;8.866;2023-02-18T04:19:43;11.00;99.90
18291;DHT22;9271;48.590;8.866;2023-02-18T04:22:09;10.90;99.90
18291;DHT22;9271;48.590;8.866;2023-02-18T04:24:36;10.90;99.90
18291;DHT22;9271;48.590;8.866;2023-02-18T04:27:03;11.00;99.90
18291;DHT22;9271;48.590;8.866;2023-02-18T04:29:31;11.00;99.90
18291;DHT22;9271;48.590;8.866;2023-02-18T04:31:57;10.90;99.90
18291;DHT22;9271;48.590;8.866;2023-02-18T04:34:24;11.00;99.90
18291;DHT22;9271;48.590;8.866;2023-02-18T04:36:51;11.00;99.90
18291;DHT22;9271;48.590;8.866;2023-02-18T04:39:18;11.10;99.90
18291;DHT22;9271;48.590;8.866;2023-02-18T04:41:44;11.00;99.90
18291;DHT22;9271;48.590;8.866;2023-02-18T04:44:11;10.90;99.90
18291;DHT22;9271;48.590;8.866;2023-02-18T04:46:39;10.70;99.90
18291;DHT22;9271;48.590;8.866;2023-02-18T04:49:05;10.90;99.90
18291;DHT22;9271;48.590;8.866;2023-02-18T04:51:32;10.90;99.90
18291;DHT22;9271;48.590;8.866;2023-02-18T04:53:59;10.70;99.90
18291;DHT22;9271;48.590;8.866;2023-02-18T04:56:25;10.80;99.90
18291;DHT22;9271;48.590;8.866;2023-02-18T04:58:52;10.80;99.90
18291;DHT22;9271;48.590;8.866;2023-02-18T05:01:18;10.80;99.90
18291;DHT22;9271;48.590;8.866;2023-02-18T05:03:46;10.90;99.90
18291;DHT22;9271;48.590;8.866;2023-02-18T05:06:13;11.10;99.90
18291;DHT22;9271;48.590;8.866;2023-02-18T05:08:40;11.20;99.90
18291;DHT22;9271;48.590;8.866;2023-02-18T05:11:07;11.30;99.90
18291;DHT22;9271;48.590;8.866;2023-02-18T05:13:34;11.40;99.90
18291;DHT22;9271;48.590;8.866;2023-02-18T05:16:00;11.50;99.90
18291;DHT22;9271;48.590;8.866;2023-02-18T05:18:27;11.70;99.90
18291;DHT22;9271;48.590;8.866;2023-02-18T05:20:55;11.80;99.90
18291;DHT22;9271;48.590;8.866;2023-02-18T05:23:22;11.80;99.90
18291;DHT22;9271;48.590;8.866;2023-02-18T05:25:50;11.80;99.90
18291;DHT22;9271;48.590;8.866;2023-02-18T05:28:16;11.70;99.90
18291;DHT22;9271;48.590;8.866;2023-02-18T05:30:43;11.80;99.90
18291;DHT22;9271;48.590;8.866;2023-02-18T05:33:10;11.90;99.90
18291;DHT22;9271;48.590;8.866;2023-02-18T05:35:36;11.90;99.90
18291;DHT22;9271;48.590;8.866;2023-02-18T05:38:04;12.00;99.90
18291;DHT22;9271;48.590;8.866;2023-02-18T05:40:31;12.00;99.90
18291;DHT22;9271;48.590;8.866;2023-02-18T05:42:57;12.00;99.90
18291;DHT22;9271;48.590;8.866;2023-02-18T05:45:24;12.20;99.90
18291;DHT22;9271;48.590;8.866;2023-02-18T05:47:51;12.10;99.90
18291;DHT22;9271;48.590;8.866;2023-02-18T05:50:17;12.10;99.90
18291;DHT22;9271;48.590;8.866;2023-02-18T05:52:44;11.90;99.90
18291;DHT22;9271;48.590;8.866;2023-02-18T05:55:12;11.80;99.90
18291;DHT22;9271;48.590;8.866;2023-02-18T05:57:39;11.80;99.90
18291;DHT22;9271;48.590;8.866;2023-02-18T06:00:06;11.90;99.90
18291;DHT22;9271;48.590;8.866;2023-02-18T06:02:34;12.00;99.90
18291;DHT22;9271;48.590;8.866;2023-02-18T06:05:01;12.10;99.90
18291;DHT22;9271;48.590;8.866;2023-02-18T06:07:28;12.10;99.90
18291;DHT22;9271;48.590;8.866;2023-02-18T06:09:54;12.10;99.90
18291;DHT22;9271;48.590;8.866;2023-02-18T06:12:22;12.20;99.90
18291;DHT22;9271;48.590;8.866;2023-02-18T06:14:49;12.20;99.90
18291;DHT22;9271;48.590;8.866;2023-02-18T06:17:16;12.10;99.90
18291;DHT22;9271;48.590;8.866;2023-02-18T06:19:43;12.10;99.90
18291;DHT22;9271;48.590;8.866;2023-02-18T06:22:10;12.10;99.90
18291;DHT22;9271;48.590;8.866;2023-02-18T06:24:37;12.10;99.90
18291;DHT22;9271;48.590;8.866;2023-02-18T06:27:04;12.10;99.90
18291;DHT22;9271;48.590;8.866;2023-02-18T06:29:32;12.20;99.90
18291;DHT22;9271;48.590;8.866;2023-02-18T06:32:00;12.20;99.90
18291;DHT22;9271;48.590;8.866;2023-02-18T06:34:27;12.20;99.90
18291;DHT22;9271;48.590;8.866;2023-02-18T06:36:53;12.20;99.90
18291;DHT22;9271;48.590;8.866;2023-02-18T06:39:20;12.20;99.90
18291;DHT22;9271;48.590;8.866;2023-02-18T06:41:46;12.30;99.90
18291;DHT22;9271;48.590;8.866;2023-02-18T06:44:13;12.50;99.90
18291;DHT22;9271;48.590;8.866;2023-02-18T06:46:43;12.50;99.90
18291;DHT22;9271;48.590;8.866;2023-02-18T06:49:10;12.50;99.90
18291;DHT22;9271;48.590;8.866;2023-02-18T06:51:36;12.40;99.90
18291;DHT22;9271;48.590;8.866;2023-02-18T06:54:03;12.40;99.90
18291;DHT22;9271;48.590;8.866;2023-02-18T06:56:31;12.70;99.90
18291;DHT22;9271;48.590;8.866;2023-02-18T06:58:57;12.70;99.90
18291;DHT22;9271;48.590;8.866;2023-02-18T07:01:24;12.70;99.90
18291;DHT22;9271;48.590;8.866;2023-02-18T07:03:52;12.90;99.90
18291;DHT22;9271;48.590;8.866;2023-02-18T07:06:19;13.00;99.90
18291;DHT22;9271;48.590;8.866;2023-02-18T07:08:45;13.20;99.90
18291;DHT22;9271;48.590;8.866;2023-02-18T07:11:12;13.10;99.90
18291;DHT22;9271;48.590;8.866;2023-02-18T07:13:38;12.90;99.90
18291;DHT22;9271;48.590;8.866;2023-02-18T07:16:05;12.90;99.90
18291;DHT22;9271;48.590;8.866;2023-02-18T07:18:32;13.00;99.90
18291;DHT22;9271;48.590;8.866;2023-02-18T07:21:00;12.90;99.90
18291;DHT22;9271;48.590;8.866;2023-02-18T07:23:26;12.90;99.90
18291;DHT22;9271;48.590;8.866;2023-02-18T07:26:02;13.20;99.90
18291;DHT22;9271;48.590;8.866;2023-02-18T07:28:28;13.40;99.80
18291;DHT22;9271;48.590;8.866;2023-02-18T07:30:55;13.50;99.60
18291;DHT22;9271;48.590;8.866;2023-02-18T07:33:22;13.50;99.60
18291;DHT22;9271;48.590;8.866;2023-02-18T07:35:52;13.50;99.30
18291;DHT22;9271;48.590;8.866;2023-02-18T07:38:21;13.50;99.30
18291;DHT22;9271;48.590;8.866;2023-02-18T07:40:48;13.50;99.40
18291;DHT22;9271;48.590;8.866;2023-02-18T07:43:14;13.30;99.40
18291;DHT22;9271;48.590;8.866;2023-02-18T07:45:41;13.20;99.70
18291;DHT22;9271;48.590;8.866;2023-02-18T07:48:08;13.30;99.50
18291;DHT22;9271;48.590;8.866;2023-02-18T07:50:37;13.00;99.90
18291;DHT22;9271;48.590;8.866;2023-02-18T07:53:04;13.10;99.80
18291;DHT22;9271;48.590;8.866;2023-02-18T07:55:33;12.90;99.60
18291;DHT22;9271;48.590;8.866;2023-02-18T07:58:28;12.70;99.90
18291;DHT22;9271;48.590;8.866;2023-02-18T08:00:55;12.80;99.90
18291;DHT22;9271;48.590;8.866;2023-02-18T08:03:24;13.30;99.70
18291;DHT22;9271;48.590;8.866;2023-02-18T08:05:52;13.50;99.30
18291;DHT22;9271;48.590;8.866;2023-02-18T08:08:21;13.40;99.60
18291;DHT22;9271;48.590;8.866;2023-02-18T08:10:49;13.60;99.20
18291;DHT22;9271;48.590;8.866;2023-02-18T08:13:16;13.10;99.20
18291;DHT22;9271;48.590;8.866;2023-02-18T08:15:44;13.10;99.20
18291;DHT22;9271;48.590;8.866;2023-02-18T08:18:15;13.00;99.70
18291;DHT22;9271;48.590;8.866;2023-02-18T08:20:41;13.00;99.20
18291;DHT22;9271;48.590;8.866;2023-02-18T08:23:09;12.80;99.20
18291;DHT22;9271;48.590;8.866;2023-02-18T08:25:36;12.80;99.60
18291;DHT22;9271;48.590;8.866;2023-02-18T08:28:03;13.20;99.10
18291;DHT22;9271;48.590;8.866;2023-02-18T08:30:30;13.30;98.50
18291;DHT22;9271;48.590;8.866;2023-02-18T08:32:59;13.10;98.50
18291;DHT22;9271;48.590;8.866;2023-02-18T08:35:25;12.80;98.90
18291;DHT22;9271;48.590;8.866;2023-02-18T08:37:52;12.90;98.50
18291;DHT22;9271;48.590;8.866;2023-02-18T08:40:19;13.00;98.90
18291;DHT22;9271;48.590;8.866;2023-02-18T08:42:45;13.40;98.20
18291;DHT22;9271;48.590;8.866;2023-02-18T08:45:12;13.50;97.80
18291;DHT22;9271;48.590;8.866;2023-02-18T08:47:39;13.30;97.80
18291;DHT22;9271;48.590;8.866;2023-02-18T08:50:07;13.30;98.10
18291;DHT22;9271;48.590;8.866;2023-02-18T08:52:34;13.40;97.90
18291;DHT22;9271;48.590;8.866;2023-02-18T08:55:01;13.30;98.00
18291;DHT22;9271;48.590;8.866;2023-02-18T08:57:28;13.20;98.40
18291;DHT22;9271;48.590;8.866;2023-02-18T08:59:54;13.10;98.40
18291;DHT22;9271;48.590;8.866;2023-02-18T09:02:21;13.00;98.60
18291;DHT22;9271;48.590;8.866;2023-02-18T09:04:48;13.20;98.70
18291;DHT22;9271;48.590;8.866;2023-02-18T09:07:16;13.10;98.70
18291;DHT22;9271;48.590;8.866;2023-02-18T09:09:43;13.40;98.30
18291;DHT22;9271;48.590;8.866;2023-02-18T09:12:10;13.30;98.60
18291;DHT22;9271;48.590;8.866;2023-02-18T09:14:36;13.20;98.80
18291;DHT22;9271;48.590;8.866;2023-02-18T09:17:03;13.20;98.90
18291;DHT22;9271;48.590;8.866;2023-02-18T09:19:30;13.00;99.10
18291;DHT22;9271;48.590;8.866;2023-02-18T09:21:56;13.10;99.10
18291;DHT22;9271;48.590;8.866;2023-02-18T09:24:24;13.00;98.90
18291;DHT22;9271;48.590;8.866;2023-02-18T09:26:51;13.10;99.00
18291;DHT22;9271;48.590;8.866;2023-02-18T09:29:18;13.30;98.80
18291;DHT22;9271;48.590;8.866;2023-02-18T09:31:45;13.60;98.30
18291;DHT22;9271;48.590;8.866;2023-02-18T09:34:12;13.80;98.00
18291;DHT22;9271;48.590;8.866;2023-02-18T09:36:38;13.60;98.00
18291;DHT22;9271;48.590;8.866;2023-02-18T09:39:05;13.70;98.10
18291;DHT22;9271;48.590;8.866;2023-02-18T09:41:38;13.80;98.40
18291;DHT22;9271;48.590;8.866;2023-02-18T09:44:10;14.20;97.40
18291;DHT22;9271;48.590;8.866;2023-02-18T09:46:39;13.90;98.00
18291;DHT22;9271;48.590;8.866;2023-02-18T09:49:19;13.80;98.00
18291;DHT22;9271;48.590;8.866;2023-02-18T09:51:47;13.90;97.80
18291;DHT22;9271;48.590;8.866;2023-02-18T09:54:15;13.90;97.70
18291;DHT22;9271;48.590;8.866;2023-02-18T09:56:45;13.80;97.80
18291;DHT22;9271;48.590;8.866;2023-02-18T09:59:16;13.80;97.70
18291;DHT22;9271;48.590;8.866;2023-02-18T10:01:44;14.10;97.60
18291;DHT22;9271;48.590;8.866;2023-02-18T10:04:14;14.10;97.10
18291;DHT22;9271;48.590;8.866;2023-02-18T10:06:43;14.30;96.80
18291;DHT22;9271;48.590;8.866;2023-02-18T10:09:19;14.10;97.10
18291;DHT22;9271;48.590;8.866;2023-02-18T10:11:51;13.80;97.30
18291;DHT22;9271;48.590;8.866;2023-02-18T10:14:20;13.80;97.40
18291;DHT22;9271;48.590;8.866;2023-02-18T10:16:48;13.70;97.80
18291;DHT22;9271;48.590;8.866;2023-02-18T10:19:21;13.60;97.80
18291;DHT22;9271;48.590;8.866;2023-02-18T10:21:50;13.70;97.90
18291;DHT22;9271;48.590;8.866;2023-02-18T10:24:26;13.60;97.70
18291;DHT22;9271;48.590;8.866;2023-02-18T10:26:55;13.60;98.10
18291;DHT22;9271;48.590;8.866;2023-02-18T10:29:22;13.60;97.50
18291;DHT22;9271;48.590;8.866;2023-02-18T10:31:53;13.80;97.20
18291;DHT22;9271;48.590;8.866;2023-02-18T10:34:29;14.00;96.90
18291;DHT22;9271;48.590;8.866;2023-02-18T10:37:07;13.60;97.30
18291;DHT22;9271;48.590;8.866;2023-02-18T10:39:47;13.80;97.40
18291;DHT22;9271;48.590;8.866;2023-02-18T10:42:27;13.80;97.50
18291;DHT22;9271;48.590;8.866;2023-02-18T10:45:07;13.80;97.00
18291;DHT22;9271;48.590;8.866;2023-02-18T10:47:38;13.70;97.20
18291;DHT22;9271;48.590;8.866;2023-02-18T10:50:10;13.90;97.10
18291;DHT22;9271;48.590;8.866;2023-02-18T10:52:40;13.80;96.90
18291;DHT22;9271;48.590;8.866;2023-02-18T10:55:10;13.60;97.20
18291;DHT22;9271;48.590;8.866;2023-02-18T10:57:47;13.60;97.60
18291;DHT22;9271;48.590;8.866;2023-02-18T11:00:17;14.00;97.00
18291;DHT22;9271;48.590;8.866;2023-02-18T11:02:45;14.20;96.50
18291;DHT22;9271;48.590;8.866;2023-02-18T11:05:19;14.30;96.20
18291;DHT22;9271;48.590;8.866;2023-02-18T11:07:50;14.40;96.00
18291;DHT22;9271;48.590;8.866;2023-02-18T11:10:21;14.70;95.40
18291;DHT22;9271;48.590;8.866;2023-02-18T11:12:51;14.40;95.60
18291;DHT22;9271;48.590;8.866;2023-02-18T11:15:23;14.10;95.90
18291;DHT22;9271;48.590;8.866;2023-02-18T11:17:52;14.30;95.80
18291;DHT22;9271;48.590;8.866;2023-02-18T11:20:23;14.20;95.90
18291;DHT22;9271;48.590;8.866;2023-02-18T11:22:50;14.70;95.60
18291;DHT22;9271;48.590;8.866;2023-02-18T11:25:22;14.90;94.60
18291;DHT22;9271;48.590;8.866;2023-02-18T11:27:53;14.60;95.10
18291;DHT22;9271;48.590;8.866;2023-02-18T11:30:23;14.50;95.30
18291;DHT22;9271;48.590;8.866;2023-02-18T11:32:53;14.40;95.20
18291;DHT22;9271;48.590;8.866;2023-02-18T11:35:24;14.40;95.20
18291;DHT22;9271;48.590;8.866;2023-02-18T11:37:51;14.30;95.20
18291;DHT22;9271;48.590;8.866;2023-02-18T11:40:21;14.00;94.80
18291;DHT22;9271;48.590;8.866;2023-02-18T11:42:48;14.10;95.20
18291;DHT22;9271;48.590;8.866;2023-02-18T11:45:28;14.10;94.90
18291;DHT22;9271;48.590;8.866;2023-02-18T11:47:59;14.30;94.70
18291;DHT22;9271;48.590;8.866;2023-02-18T11:50:30;14.20;94.30
18291;DHT22;9271;48.590;8.866;2023-02-18T11:52:57;14.20;94.20
18291;DHT22;9271;48.590;8.866;2023-02-18T11:55:26;14.30;94.40
18291;DHT22;9271;48.590;8.866;2023-02-18T11:57:56;14.30;94.00
18291;DHT22;9271;48.590;8.866;2023-02-18T12:00:32;14.50;94.10
18291;DHT22;9271;48.590;8.866;2023-02-18T12:03:02;15.00;93.30
18291;DHT22;9271;48.590;8.866;2023-02-18T12:05:30;15.00;92.90
18291;DHT22;9271;48.590;8.866;2023-02-18T12:08:02;15.30;92.30
18291;DHT22;9271;48.590;8.866;2023-02-18T12:10:32;15.10;92.20
18291;DHT22;9271;48.590;8.866;2023-02-18T12:13:02;15.60;92.00
18291;DHT22;9271;48.590;8.866;2023-02-18T12:15:47;16.10;91.50
18291;DHT22;9271;48.590;8.866;2023-02-18T12:18:31;16.30;91.10
18291;DHT22;9271;48.590;8.866;2023-02-18T12:21:17;16.10;91.20
18291;DHT22;9271;48.590;8.866;2023-02-18T12:23:54;16.40;90.50
18291;DHT22;9271;48.590;8.866;2023-02-18T12:26:25;16.30;89.90
18291;DHT22;9271;48.590;8.866;2023-02-18T12:29:08;16.40;89.40
18291;DHT22;9271;48.590;8.866;2023-02-18T12:34:50;16.50;88.70
18291;DHT22;9271;48.590;8.866;2023-02-18T12:37:41;16.40;88.70
18291;DHT22;9271;48.590;8.866;2023-02-18T12:40:46;15.90;89.70
18291;DHT22;9271;48.590;8.866;2023-02-18T12:43:24;15.80;90.10
18291;DHT22;9271;48.590;8.866;2023-02-18T12:46:08;16.30;89.40
18291;DHT22;9271;48.590;8.866;2023-02-18T12:48:47;16.20;88.20
18291;DHT22;9271;48.590;8.866;2023-02-18T12:51:25;16.20;88.40
18291;DHT22;9271;48.590;8.866;2023-02-18T12:54:12;16.70;87.40
18291;DHT22;9271;48.590;8.866;2023-02-18T12:56:53;16.30;88.20
18291;DHT22;9271;48.590;8.866;2023-02-18T13:02:33;16.20;89.30
18291;DHT22;9271;48.590;8.866;2023-02-18T13:05:07;15.90;89.00
18291;DHT22;9271;48.590;8.866;2023-02-18T13:07:45;15.50;89.20
18291;DHT22;9271;48.590;8.866;2023-02-18T13:13:18;15.40;90.60
18291;DHT22;9271;48.590;8.866;2023-02-18T13:15:47;15.40;90.60
18291;DHT22;9271;48.590;8.866;2023-02-18T13:18:20;15.30;90.60
18291;DHT22;9271;48.590;8.866;2023-02-18T13:20:53;15.30;90.60
18291;DHT22;9271;48.590;8.866;2023-02-18T13:23:22;15.40;90.50
18291;DHT22;9271;48.590;8.866;2023-02-18T13:25:55;15.40;90.60
18291;DHT22;9271;48.590;8.866;2023-02-18T13:28:27;15.70;90.50
18291;DHT22;9271;48.590;8.866;2023-02-18T13:31:05;15.40;90.40
18291;DHT22;9271;48.590;8.866;2023-02-18T13:33:43;15.40;90.70
18291;DHT22;9271;48.590;8.866;2023-02-18T13:36:21;15.70;90.60
18291;DHT22;9271;48.590;8.866;2023-02-18T13:38:57;16.00;90.10
18291;DHT22;9271;48.590;8.866;2023-02-18T13:41:26;16.30;89.50
18291;DHT22;9271;48.590;8.866;2023-02-18T13:43:53;16.50;88.70
18291;DHT22;9271;48.590;8.866;2023-02-18T13:46:20;16.50;89.10
18291;DHT22;9271;48.590;8.866;2023-02-18T13:48:49;15.90;90.00
18291;DHT22;9271;48.590;8.866;2023-02-18T13:51:27;15.90;90.30
18291;DHT22;9271;48.590;8.866;2023-02-18T13:54:00;15.20;90.90
18291;DHT22;9271;48.590;8.866;2023-02-18T13:56:29;15.10;90.90
18291;DHT22;9271;48.590;8.866;2023-02-18T13:59:00;15.20;90.70
18291;DHT22;9271;48.590;8.866;2023-02-18T14:01:39;15.10;91.00
18291;DHT22;9271;48.590;8.866;2023-02-18T14:04:35;15.30;91.10
18291;DHT22;9271;48.590;8.866;2023-02-18T14:07:32;15.30;90.90
18291;DHT22;9271;48.590;8.866;2023-02-18T14:10:04;15.50;90.40
18291;DHT22;9271;48.590;8.866;2023-02-18T14:12:36;15.70;90.10
18291;DHT22;9271;48.590;8.866;2023-02-18T14:15:45;15.80;89.80
18291;DHT22;9271;48.590;8.866;2023-02-18T14:18:33;16.20;89.10
18291;DHT22;9271;48.590;8.866;2023-02-18T14:21:41;16.60;88.00
18291;DHT22;9271;48.590;8.866;2023-02-18T14:24:11;16.80;86.60
18291;DHT22;9271;48.590;8.866;2023-02-18T14:26:45;16.40;86.20
18291;DHT22;9271;48.590;8.866;2023-02-18T14:29:16;15.50;88.60
18291;DHT22;9271;48.590;8.866;2023-02-18T14:31:56;15.50;89.50
18291;DHT22;9271;48.590;8.866;2023-02-18T14:37:49;15.70;89.60
18291;DHT22;9271;48.590;8.866;2023-02-18T14:43:11;16.40;87.10
18291;DHT22;9271;48.590;8.866;2023-02-18T14:46:04;17.60;84.70
18291;DHT22;9271;48.590;8.866;2023-02-18T14:48:49;17.90;82.10
18291;DHT22;9271;48.590;8.866;2023-02-18T14:51:23;17.40;84.20
18291;DHT22;9271;48.590;8.866;2023-02-18T14:53:50;16.60;86.30
18291;DHT22;9271;48.590;8.866;2023-02-18T14:56:20;16.40;87.50
18291;DHT22;9271;48.590;8.866;2023-02-18T14:58:51;16.20;88.60
18291;DHT22;9271;48.590;8.866;2023-02-18T15:01:20;15.50;90.20
18291;DHT22;9271;48.590;8.866;2023-02-18T15:03:48;15.40;90.60
18291;DHT22;9271;48.590;8.866;2023-02-18T15:06:23;15.10;90.70
18291;DHT22;9271;48.590;8.866;2023-02-18T15:08:50;15.30;90.60
18291;DHT22;9271;48.590;8.866;2023-02-18T15:11:20;15.20;90.60
18291;DHT22;9271;48.590;8.866;2023-02-18T15:13:47;15.50;90.30
18291;DHT22;9271;48.590;8.866;2023-02-18T15:16:18;16.60;88.20
18291;DHT22;9271;48.590;8.866;2023-02-18T15:18:50;16.40;88.10
18291;DHT22;9271;48.590;8.866;2023-02-18T15:21:20;16.10;88.90
18291;DHT22;9271;48.590;8.866;2023-02-18T15:23:47;15.50;90.00
18291;DHT22;9271;48.590;8.866;2023-02-18T15:26:15;15.50;90.00
18291;DHT22;9271;48.590;8.866;2023-02-18T15:28:53;15.40;90.00
18291;DHT22;9271;48.590;8.866;2023-02-18T15:31:24;15.20;90.20
18291;DHT22;9271;48.590;8.866;2023-02-18T15:33:51;15.10;90.60
18291;DHT22;9271;48.590;8.866;2023-02-18T15:36:18;15.10;90.80
18291;DHT22;9271;48.590;8.866;2023-02-18T15:38:44;15.10;90.70
18291;DHT22;9271;48.590;8.866;2023-02-18T15:41:13;15.40;90.60
18291;DHT22;9271;48.590;8.866;2023-02-18T15:43:52;15.10;90.50
18291;DHT22;9271;48.590;8.866;2023-02-18T15:46:20;14.60;91.10
18291;DHT22;9271;48.590;8.866;2023-02-18T15:48:50;14.30;91.60
18291;DHT22;9271;48.590;8.866;2023-02-18T15:51:21;14.20;91.90
18291;DHT22;9271;48.590;8.866;2023-02-18T15:53:50;14.30;91.60
18291;DHT22;9271;48.590;8.866;2023-02-18T15:56:22;14.50;91.70
18291;DHT22;9271;48.590;8.866;2023-02-18T15:58:56;14.50;91.40
18291;DHT22;9271;48.590;8.866;2023-02-18T16:01:32;14.60;91.70
18291;DHT22;9271;48.590;8.866;2023-02-18T16:03:59;14.80;91.30
18291;DHT22;9271;48.590;8.866;2023-02-18T16:06:28;14.60;91.50
18291;DHT22;9271;48.590;8.866;2023-02-18T16:08:58;14.30;91.80
18291;DHT22;9271;48.590;8.866;2023-02-18T16:11:27;14.00;92.40
18291;DHT22;9271;48.590;8.866;2023-02-18T16:13:57;13.80;92.60
18291;DHT22;9271;48.590;8.866;2023-02-18T16:16:28;13.90;92.80
18291;DHT22;9271;48.590;8.866;2023-02-18T16:18:55;14.00;92.50
18291;DHT22;9271;48.590;8.866;2023-02-18T16:21:28;13.70;92.80
18291;DHT22;9271;48.590;8.866;2023-02-18T16:23:56;13.70;93.00
18291;DHT22;9271;48.590;8.866;2023-02-18T16:26:28;13.70;92.90
18291;DHT22;9271;48.590;8.866;2023-02-18T16:29:03;13.70;92.90
18291;DHT22;9271;48.590;8.866;2023-02-18T16:31:30;13.70;92.90
18291;DHT22;9271;48.590;8.866;2023-02-18T16:33:57;13.60;93.10
18291;DHT22;9271;48.590;8.866;2023-02-18T16:36:24;13.50;93.20